sensor_id;sensor_type;location;lat;lon;timestamp;temperature;humidity
66752;SHT31;53663;42.676;23.238;2024-02-26T00:01:23;7.80;84.12
66752;SHT31;53663;42.676;23.238;2024-02-26T00:03:49;7.84;83.41
66752;SHT31;53663;42.676;23.238;2024-02-26T00:06:15;7.87;83.18
66752;SHT31;53663;42.676;23.238;2024-02-26T00:08:40;7.90;82.97
66752;SHT31;53663;42.676;23.238;2024-02-26T00:11:06;7.93;83.04
66752;SHT31;53663;42.676;23.238;2024-02-26T00:13:31;7.98;83.22
66752;SHT31;53663;42.676;23.238;2024-02-26T00:15:57;7.97;82.95
66752;SHT31;53663;42.676;23.238;2024-02-26T00:18:23;7.98;82.82
66752;SHT31;53663;42.676;23.238;2024-02-26T00:20:48;8.04;82.83
66752;SHT31;53663;42.676;23.238;2024-02-26T00:23:17;7.98;83.18
66752;SHT31;53663;42.676;23.238;2024-02-26T00:25:42;7.85;84.07
66752;SHT31;53663;42.676;23.238;2024-02-26T00:28:09;7.98;83.65
66752;SHT31;53663;42.676;23.238;2024-02-26T00:30:35;8.01;83.40
66752;SHT31;53663;42.676;23.238;2024-02-26T00:33:00;8.05;83.23
66752;SHT31;53663;42.676;23.238;2024-02-26T00:35:26;8.02;83.41
66752;SHT31;53663;42.676;23.238;2024-02-26T00:37:51;8.05;83.45
66752;SHT31;53663;42.676;23.238;2024-02-26T00:40:17;8.12;83.17
66752;SHT31;53663;42.676;23.238;2024-02-26T00:42:43;8.18;83.15
66752;SHT31;53663;42.676;23.238;2024-02-26T00:45:11;8.24;83.40
66752;SHT31;53663;42.676;23.238;2024-02-26T00:47:37;8.25;83.30
66752;SHT31;53663;42.676;23.238;2024-02-26T00:50:03;8.31;83.23
66752;SHT31;53663;42.676;23.238;2024-02-26T00:52:29;8.32;83.30
66752;SHT31;53663;42.676;23.238;2024-02-26T00:54:54;8.33;83.21
66752;SHT31;53663;42.676;23.238;2024-02-26T00:57:20;8.41;83.44
66752;SHT31;53663;42.676;23.238;2024-02-26T00:59:45;8.45;83.00
66752;SHT31;53663;42.676;23.238;2024-02-26T01:02:10;8.43;83.02
66752;SHT31;53663;42.676;23.238;2024-02-26T01:04:36;8.48;82.91
66752;SHT31;53663;42.676;23.238;2024-02-26T01:07:02;8.45;82.84
66752;SHT31;53663;42.676;23.238;2024-02-26T01:09:28;8.43;82.68
66752;SHT31;53663;42.676;23.238;2024-02-26T01:11:53;8.49;82.67
66752;SHT31;53663;42.676;23.238;2024-02-26T01:14:19;8.52;82.48
66752;SHT31;53663;42.676;23.238;2024-02-26T01:16:44;8.49;82.53
66752;SHT31;53663;42.676;23.238;2024-02-26T01:19:10;8.39;83.22
66752;SHT31;53663;42.676;23.238;2024-02-26T01:21:35;8.45;83.30
66752;SHT31;53663;42.676;23.238;2024-02-26T01:24:01;8.52;83.14
66752;SHT31;53663;42.676;23.238;2024-02-26T01:26:26;8.54;82.89
66752;SHT31;53663;42.676;23.238;2024-02-26T01:28:52;8.59;82.79
66752;SHT31;53663;42.676;23.238;2024-02-26T01:31:17;8.56;82.85
66752;SHT31;53663;42.676;23.238;2024-02-26T01:33:43;8.54;82.83
66752;SHT31;53663;42.676;23.238;2024-02-26T01:36:08;8.50;82.73
66752;SHT31;53663;42.676;23.238;2024-02-26T01:38:34;8.52;82.87
66752;SHT31;53663;42.676;23.238;2024-02-26T01:41:00;8.56;82.85
66752;SHT31;53663;42.676;23.238;2024-02-26T01:43:25;8.52;82.79
66752;SHT31;53663;42.676;23.238;2024-02-26T01:45:51;8.29;83.46
66752;SHT31;53663;42.676;23.238;2024-02-26T01:48:16;8.29;83.74
66752;SHT31;53663;42.676;23.238;2024-02-26T01:50:42;8.41;83.26
66752;SHT31;53663;42.676;23.238;2024-02-26T01:53:08;8.45;83.05
66752;SHT31;53663;42.676;23.238;2024-02-26T01:55:34;8.48;82.93
66752;SHT31;53663;42.676;23.238;2024-02-26T01:58:00;8.49;82.91
66752;SHT31;53663;42.676;23.238;2024-02-26T02:00:26;8.54;82.55
66752;SHT31;53663;42.676;23.238;2024-02-26T02:02:51;8.53;82.60
66752;SHT31;53663;42.676;23.238;2024-02-26T02:05:18;8.60;82.58
66752;SHT31;53663;42.676;23.238;2024-02-26T02:07:45;8.64;82.43
66752;SHT31;53663;42.676;23.238;2024-02-26T02:10:12;8.62;82.35
66752;SHT31;53663;42.676;23.238;2024-02-26T02:12:37;8.63;82.34
66752;SHT31;53663;42.676;23.238;2024-02-26T02:15:05;8.66;82.41
66752;SHT31;53663;42.676;23.238;2024-02-26T02:17:31;8.67;82.29
66752;SHT31;53663;42.676;23.238;2024-02-26T02:19:57;8.69;82.25
66752;SHT31;53663;42.676;23.238;2024-02-26T02:22:22;8.69;82.20
66752;SHT31;53663;42.676;23.238;2024-02-26T02:24:50;8.67;82.17
66752;SHT31;53663;42.676;23.238;2024-02-26T02:27:16;8.72;82.17
66752;SHT31;53663;42.676;23.238;2024-02-26T02:29:42;8.70;82.12
66752;SHT31;53663;42.676;23.238;2024-02-26T02:32:08;8.64;82.23
66752;SHT31;53663;42.676;23.238;2024-02-26T02:34:34;8.74;82.20
66752;SHT31;53663;42.676;23.238;2024-02-26T02:36:59;8.72;82.21
66752;SHT31;53663;42.676;23.238;2024-02-26T02:39:25;8.69;82.24
66752;SHT31;53663;42.676;23.238;2024-02-26T02:41:50;8.63;82.31
66752;SHT31;53663;42.676;23.238;2024-02-26T02:44:16;8.52;82.75
66752;SHT31;53663;42.676;23.238;2024-02-26T02:46:42;8.32;83.52
66752;SHT31;53663;42.676;23.238;2024-02-26T02:49:09;8.36;83.75
66752;SHT31;53663;42.676;23.238;2024-02-26T02:51:35;8.52;83.25
66752;SHT31;53663;42.676;23.238;2024-02-26T02:54:01;8.56;82.94
66752;SHT31;53663;42.676;23.238;2024-02-26T02:56:26;8.63;82.85
66752;SHT31;53663;42.676;23.238;2024-02-26T02:58:52;8.60;82.91
66752;SHT31;53663;42.676;23.238;2024-02-26T03:01:17;8.54;83.35
66752;SHT31;53663;42.676;23.238;2024-02-26T03:03:43;8.62;83.21
66752;SHT31;53663;42.676;23.238;2024-02-26T03:06:08;8.67;82.98
66752;SHT31;53663;42.676;23.238;2024-02-26T03:08:34;8.70;82.68
66752;SHT31;53663;42.676;23.238;2024-02-26T03:11:04;8.72;82.64
66752;SHT31;53663;42.676;23.238;2024-02-26T03:13:29;8.73;82.56
66752;SHT31;53663;42.676;23.238;2024-02-26T03:15:55;8.72;82.48
66752;SHT31;53663;42.676;23.238;2024-02-26T03:18:20;8.70;82.71
66752;SHT31;53663;42.676;23.238;2024-02-26T03:20:46;8.70;82.82
66752;SHT31;53663;42.676;23.238;2024-02-26T03:23:11;8.72;82.77
66752;SHT31;53663;42.676;23.238;2024-02-26T03:25:41;8.72;82.67
66752;SHT31;53663;42.676;23.238;2024-02-26T03:28:07;8.63;82.98
66752;SHT31;53663;42.676;23.238;2024-02-26T03:30:32;8.66;82.80
66752;SHT31;53663;42.676;23.238;2024-02-26T03:32:58;8.66;82.76
66752;SHT31;53663;42.676;23.238;2024-02-26T03:35:23;8.66;82.75
66752;SHT31;53663;42.676;23.238;2024-02-26T03:37:49;8.62;82.57
66752;SHT31;53663;42.676;23.238;2024-02-26T03:40:16;8.64;82.65
66752;SHT31;53663;42.676;23.238;2024-02-26T03:42:44;8.63;82.63
66752;SHT31;53663;42.676;23.238;2024-02-26T03:45:10;8.62;82.67
66752;SHT31;53663;42.676;23.238;2024-02-26T03:47:37;8.60;82.50
66752;SHT31;53663;42.676;23.238;2024-02-26T03:50:03;8.57;82.46
66752;SHT31;53663;42.676;23.238;2024-02-26T03:52:30;8.59;82.44
66752;SHT31;53663;42.676;23.238;2024-02-26T03:54:55;8.57;82.49
66752;SHT31;53663;42.676;23.238;2024-02-26T03:57:21;8.59;82.41
66752;SHT31;53663;42.676;23.238;2024-02-26T03:59:46;8.60;82.34
66752;SHT31;53663;42.676;23.238;2024-02-26T04:02:12;8.57;82.49
66752;SHT31;53663;42.676;23.238;2024-02-26T04:04:37;8.52;82.77
66752;SHT31;53663;42.676;23.238;2024-02-26T04:07:03;8.50;82.89
66752;SHT31;53663;42.676;23.238;2024-02-26T04:09:31;8.56;82.64
66752;SHT31;53663;42.676;23.238;2024-02-26T04:11:56;8.53;82.60
66752;SHT31;53663;42.676;23.238;2024-02-26T04:14:22;8.54;82.54
66752;SHT31;53663;42.676;23.238;2024-02-26T04:16:47;8.43;82.88
66752;SHT31;53663;42.676;23.238;2024-02-26T04:19:17;8.50;82.83
66752;SHT31;53663;42.676;23.238;2024-02-26T04:21:43;8.59;82.40
66752;SHT31;53663;42.676;23.238;2024-02-26T04:24:08;8.60;82.20
66752;SHT31;53663;42.676;23.238;2024-02-26T04:26:34;8.62;82.01
66752;SHT31;53663;42.676;23.238;2024-02-26T04:29:00;8.57;82.06
66752;SHT31;53663;42.676;23.238;2024-02-26T04:31:25;8.52;82.27
66752;SHT31;53663;42.676;23.238;2024-02-26T04:33:54;8.29;82.73
66752;SHT31;53663;42.676;23.238;2024-02-26T04:36:19;8.32;83.14
66752;SHT31;53663;42.676;23.238;2024-02-26T04:38:45;8.41;82.83
66752;SHT31;53663;42.676;23.238;2024-02-26T04:41:11;8.43;82.56
66752;SHT31;53663;42.676;23.238;2024-02-26T04:43:38;8.45;82.55
66752;SHT31;53663;42.676;23.238;2024-02-26T04:46:09;8.49;82.33
66752;SHT31;53663;42.676;23.238;2024-02-26T04:48:36;8.49;82.27
66752;SHT31;53663;42.676;23.238;2024-02-26T04:51:02;8.53;82.22
66752;SHT31;53663;42.676;23.238;2024-02-26T04:53:27;8.53;82.22
66752;SHT31;53663;42.676;23.238;2024-02-26T04:55:53;8.56;82.25
66752;SHT31;53663;42.676;23.238;2024-02-26T04:58:18;8.59;82.34
66752;SHT31;53663;42.676;23.238;2024-02-26T05:00:44;8.49;82.71
66752;SHT31;53663;42.676;23.238;2024-02-26T05:03:09;8.46;82.90
66752;SHT31;53663;42.676;23.238;2024-02-26T05:05:39;8.45;82.87
66752;SHT31;53663;42.676;23.238;2024-02-26T05:08:06;8.45;82.90
66752;SHT31;53663;42.676;23.238;2024-02-26T05:10:33;8.46;82.98
66752;SHT31;53663;42.676;23.238;2024-02-26T05:12:59;8.42;83.06
66752;SHT31;53663;42.676;23.238;2024-02-26T05:15:24;8.45;82.91
66752;SHT31;53663;42.676;23.238;2024-02-26T05:17:50;8.33;83.11
66752;SHT31;53663;42.676;23.238;2024-02-26T05:20:15;8.42;83.07
66752;SHT31;53663;42.676;23.238;2024-02-26T05:22:41;8.52;82.66
66752;SHT31;53663;42.676;23.238;2024-02-26T05:25:07;8.38;82.95
66752;SHT31;53663;42.676;23.238;2024-02-26T05:27:33;8.42;82.85
66752;SHT31;53663;42.676;23.238;2024-02-26T05:29:58;8.52;82.80
66752;SHT31;53663;42.676;23.238;2024-02-26T05:32:24;8.52;82.74
66752;SHT31;53663;42.676;23.238;2024-02-26T05:34:50;8.59;82.60
66752;SHT31;53663;42.676;23.238;2024-02-26T05:37:16;8.60;82.51
66752;SHT31;53663;42.676;23.238;2024-02-26T05:39:41;8.46;82.99
66752;SHT31;53663;42.676;23.238;2024-02-26T05:42:07;8.49;83.04
66752;SHT31;53663;42.676;23.238;2024-02-26T05:44:34;8.42;83.27
66752;SHT31;53663;42.676;23.238;2024-02-26T05:46:59;8.49;83.00
66752;SHT31;53663;42.676;23.238;2024-02-26T05:49:25;8.57;82.91
66752;SHT31;53663;42.676;23.238;2024-02-26T05:51:50;8.32;83.30
66752;SHT31;53663;42.676;23.238;2024-02-26T05:54:16;8.21;83.65
66752;SHT31;53663;42.676;23.238;2024-02-26T05:56:41;8.11;84.15
66752;SHT31;53663;42.676;23.238;2024-02-26T05:59:08;8.18;84.22
66752;SHT31;53663;42.676;23.238;2024-02-26T06:01:33;8.25;84.00
66752;SHT31;53663;42.676;23.238;2024-02-26T06:03:59;8.32;83.58
66752;SHT31;53663;42.676;23.238;2024-02-26T06:06:25;8.32;83.72
66752;SHT31;53663;42.676;23.238;2024-02-26T06:08:50;8.45;83.07
66752;SHT31;53663;42.676;23.238;2024-02-26T06:11:16;8.20;83.74
66752;SHT31;53663;42.676;23.238;2024-02-26T06:13:41;8.36;83.38
66752;SHT31;53663;42.676;23.238;2024-02-26T06:16:10;8.43;83.14
66752;SHT31;53663;42.676;23.238;2024-02-26T06:18:35;8.52;82.93
66752;SHT31;53663;42.676;23.238;2024-02-26T06:21:01;8.52;82.96
66752;SHT31;53663;42.676;23.238;2024-02-26T06:23:26;8.39;83.05
66752;SHT31;53663;42.676;23.238;2024-02-26T06:25:52;8.15;84.11
66752;SHT31;53663;42.676;23.238;2024-02-26T06:28:17;8.09;84.50
66752;SHT31;53663;42.676;23.238;2024-02-26T06:30:43;8.12;84.86
66752;SHT31;53663;42.676;23.238;2024-02-26T06:33:08;8.06;84.72
66752;SHT31;53663;42.676;23.238;2024-02-26T06:35:34;8.29;84.42
66752;SHT31;53663;42.676;23.238;2024-02-26T06:37:59;8.41;83.94
66752;SHT31;53663;42.676;23.238;2024-02-26T06:40:25;8.59;83.34
66752;SHT31;53663;42.676;23.238;2024-02-26T06:42:51;8.66;83.02
66752;SHT31;53663;42.676;23.238;2024-02-26T06:45:17;8.64;82.98
66752;SHT31;53663;42.676;23.238;2024-02-26T06:47:44;8.53;83.55
66752;SHT31;53663;42.676;23.238;2024-02-26T06:50:13;8.74;83.05
66752;SHT31;53663;42.676;23.238;2024-02-26T06:52:39;8.87;82.73
66752;SHT31;53663;42.676;23.238;2024-02-26T06:55:05;8.97;82.39
66752;SHT31;53663;42.676;23.238;2024-02-26T06:57:32;8.91;82.50
66752;SHT31;53663;42.676;23.238;2024-02-26T06:59:58;9.01;82.06
66752;SHT31;53663;42.676;23.238;2024-02-26T07:02:24;9.07;82.04
66752;SHT31;53663;42.676;23.238;2024-02-26T07:04:50;9.08;82.11
66752;SHT31;53663;42.676;23.238;2024-02-26T07:07:15;9.01;82.42
66752;SHT31;53663;42.676;23.238;2024-02-26T07:09:43;9.12;82.28
66752;SHT31;53663;42.676;23.238;2024-02-26T07:12:09;9.10;82.56
66752;SHT31;53663;42.676;23.238;2024-02-26T07:14:34;9.15;82.46
66752;SHT31;53663;42.676;23.238;2024-02-26T07:17:00;9.12;82.08
66752;SHT31;53663;42.676;23.238;2024-02-26T07:19:26;9.21;81.75
66752;SHT31;53663;42.676;23.238;2024-02-26T07:21:51;9.20;81.92
66752;SHT31;53663;42.676;23.238;2024-02-26T07:24:17;9.32;81.58
66752;SHT31;53663;42.676;23.238;2024-02-26T07:26:42;9.45;80.56
66752;SHT31;53663;42.676;23.238;2024-02-26T07:29:07;9.52;80.19
66752;SHT31;53663;42.676;23.238;2024-02-26T07:31:33;9.62;79.87
66752;SHT31;53663;42.676;23.238;2024-02-26T07:33:58;9.51;80.24
66752;SHT31;53663;42.676;23.238;2024-02-26T07:36:24;9.53;80.38
66752;SHT31;53663;42.676;23.238;2024-02-26T07:38:50;9.76;79.56
66752;SHT31;53663;42.676;23.238;2024-02-26T07:41:17;9.78;79.62
66752;SHT31;53663;42.676;23.238;2024-02-26T07:43:43;9.89;79.08
66752;SHT31;53663;42.676;23.238;2024-02-26T07:46:11;9.72;78.21
66752;SHT31;53663;42.676;23.238;2024-02-26T07:48:37;9.78;78.63
66752;SHT31;53663;42.676;23.238;2024-02-26T07:51:02;9.99;78.59
66752;SHT31;53663;42.676;23.238;2024-02-26T07:53:28;10.13;77.79
66752;SHT31;53663;42.676;23.238;2024-02-26T07:55:54;10.08;77.73
66752;SHT31;53663;42.676;23.238;2024-02-26T07:58:19;10.06;78.34
66752;SHT31;53663;42.676;23.238;2024-02-26T08:00:45;10.16;78.29
66752;SHT31;53663;42.676;23.238;2024-02-26T08:03:11;10.18;76.84
66752;SHT31;53663;42.676;23.238;2024-02-26T08:05:38;10.08;76.53
66752;SHT31;53663;42.676;23.238;2024-02-26T08:08:06;9.89;76.98
66752;SHT31;53663;42.676;23.238;2024-02-26T08:10:32;10.22;76.57
66752;SHT31;53663;42.676;23.238;2024-02-26T08:12:57;10.31;76.17
66752;SHT31;53663;42.676;23.238;2024-02-26T08:15:31;10.57;76.12
66752;SHT31;53663;42.676;23.238;2024-02-26T08:17:56;10.59;76.43
66752;SHT31;53663;42.676;23.238;2024-02-26T08:20:22;10.75;75.83
66752;SHT31;53663;42.676;23.238;2024-02-26T08:22:47;10.85;76.08
66752;SHT31;53663;42.676;23.238;2024-02-26T08:25:13;11.06;75.23
66752;SHT31;53663;42.676;23.238;2024-02-26T08:27:38;11.26;74.67
66752;SHT31;53663;42.676;23.238;2024-02-26T08:30:04;11.40;74.03
66752;SHT31;53663;42.676;23.238;2024-02-26T08:32:30;11.43;73.77
66752;SHT31;53663;42.676;23.238;2024-02-26T08:34:56;11.57;73.53
66752;SHT31;53663;42.676;23.238;2024-02-26T08:37:21;11.92;72.86
66752;SHT31;53663;42.676;23.238;2024-02-26T08:39:47;12.28;71.59
66752;SHT31;53663;42.676;23.238;2024-02-26T08:42:12;12.28;70.85
66752;SHT31;53663;42.676;23.238;2024-02-26T08:44:38;12.33;71.17
66752;SHT31;53663;42.676;23.238;2024-02-26T08:47:03;12.36;69.40
66752;SHT31;53663;42.676;23.238;2024-02-26T08:49:29;12.51;69.32
66752;SHT31;53663;42.676;23.238;2024-02-26T08:51:54;12.67;69.65
66752;SHT31;53663;42.676;23.238;2024-02-26T08:54:20;12.61;69.49
66752;SHT31;53663;42.676;23.238;2024-02-26T08:56:45;12.59;69.08
66752;SHT31;53663;42.676;23.238;2024-02-26T08:59:11;12.47;69.74
66752;SHT31;53663;42.676;23.238;2024-02-26T09:01:36;12.56;69.92
66752;SHT31;53663;42.676;23.238;2024-02-26T09:04:02;12.77;69.67
66752;SHT31;53663;42.676;23.238;2024-02-26T09:06:28;12.95;68.25
66752;SHT31;53663;42.676;23.238;2024-02-26T09:08:54;13.11;67.70
66752;SHT31;53663;42.676;23.238;2024-02-26T09:11:20;13.01;67.43
66752;SHT31;53663;42.676;23.238;2024-02-26T09:13:45;13.07;67.38
66752;SHT31;53663;42.676;23.238;2024-02-26T09:16:11;13.05;67.56
66752;SHT31;53663;42.676;23.238;2024-02-26T09:18:37;12.88;67.68
66752;SHT31;53663;42.676;23.238;2024-02-26T09:21:05;13.08;67.48
66752;SHT31;53663;42.676;23.238;2024-02-26T09:23:31;13.34;66.57
66752;SHT31;53663;42.676;23.238;2024-02-26T09:25:57;13.53;65.74
66752;SHT31;53663;42.676;23.238;2024-02-26T09:28:22;13.47;65.90
66752;SHT31;53663;42.676;23.238;2024-02-26T09:30:48;13.66;64.79
66752;SHT31;53663;42.676;23.238;2024-02-26T09:33:15;14.00;64.30
66752;SHT31;53663;42.676;23.238;2024-02-26T09:35:41;13.74;63.76
66752;SHT31;53663;42.676;23.238;2024-02-26T09:38:07;13.77;64.08
66752;SHT31;53663;42.676;23.238;2024-02-26T09:40:32;14.34;62.84
66752;SHT31;53663;42.676;23.238;2024-02-26T09:43:01;14.63;61.58
66752;SHT31;53663;42.676;23.238;2024-02-26T09:45:30;14.44;61.82
66752;SHT31;53663;42.676;23.238;2024-02-26T09:47:58;14.45;62.50
66752;SHT31;53663;42.676;23.238;2024-02-26T09:50:24;14.65;61.93
66752;SHT31;53663;42.676;23.238;2024-02-26T09:52:50;14.45;61.84
66752;SHT31;53663;42.676;23.238;2024-02-26T09:55:16;14.63;61.84
66752;SHT31;53663;42.676;23.238;2024-02-26T09:57:45;14.68;62.14
66752;SHT31;53663;42.676;23.238;2024-02-26T10:00:14;14.62;59.93
66752;SHT31;53663;42.676;23.238;2024-02-26T10:02:41;15.32;59.01
66752;SHT31;53663;42.676;23.238;2024-02-26T10:05:10;15.54;58.70
66752;SHT31;53663;42.676;23.238;2024-02-26T10:07:37;15.41;59.49
66752;SHT31;53663;42.676;23.238;2024-02-26T10:10:03;15.66;58.67
66752;SHT31;53663;42.676;23.238;2024-02-26T10:12:29;16.06;57.26
66752;SHT31;53663;42.676;23.238;2024-02-26T10:14:56;15.89;57.82
66752;SHT31;53663;42.676;23.238;2024-02-26T10:17:22;15.44;55.85
66752;SHT31;53663;42.676;23.238;2024-02-26T10:19:47;15.07;57.20
66752;SHT31;53663;42.676;23.238;2024-02-26T10:22:13;14.99;56.63
66752;SHT31;53663;42.676;23.238;2024-02-26T10:24:38;14.93;56.34
66752;SHT31;53663;42.676;23.238;2024-02-26T10:27:04;14.94;56.81
66752;SHT31;53663;42.676;23.238;2024-02-26T10:29:31;14.59;56.31
66752;SHT31;53663;42.676;23.238;2024-02-26T10:31:56;14.29;56.56
66752;SHT31;53663;42.676;23.238;2024-02-26T10:34:22;14.17;57.80
66752;SHT31;53663;42.676;23.238;2024-02-26T10:36:49;14.03;57.86
66752;SHT31;53663;42.676;23.238;2024-02-26T10:39:14;14.11;57.64
66752;SHT31;53663;42.676;23.238;2024-02-26T10:41:41;14.11;57.09
66752;SHT31;53663;42.676;23.238;2024-02-26T10:44:09;13.97;57.44
66752;SHT31;53663;42.676;23.238;2024-02-26T10:46:37;14.07;57.94
66752;SHT31;53663;42.676;23.238;2024-02-26T10:49:03;14.13;56.55
66752;SHT31;53663;42.676;23.238;2024-02-26T10:51:30;14.38;56.57
66752;SHT31;53663;42.676;23.238;2024-02-26T10:53:59;14.35;56.51
66752;SHT31;53663;42.676;23.238;2024-02-26T10:56:28;14.26;56.37
66752;SHT31;53663;42.676;23.238;2024-02-26T10:58:58;14.31;58.09
66752;SHT31;53663;42.676;23.238;2024-02-26T11:01:24;14.35;55.98
66752;SHT31;53663;42.676;23.238;2024-02-26T11:03:51;14.00;56.17
66752;SHT31;53663;42.676;23.238;2024-02-26T11:06:18;14.14;56.54
66752;SHT31;53663;42.676;23.238;2024-02-26T11:08:48;14.00;57.59
66752;SHT31;53663;42.676;23.238;2024-02-26T11:11:14;13.98;56.43
66752;SHT31;53663;42.676;23.238;2024-02-26T11:13:42;14.01;57.08
66752;SHT31;53663;42.676;23.238;2024-02-26T11:16:11;14.05;56.41
66752;SHT31;53663;42.676;23.238;2024-02-26T11:18:39;14.05;56.41
66752;SHT31;53663;42.676;23.238;2024-02-26T11:21:07;14.11;56.21
66752;SHT31;53663;42.676;23.238;2024-02-26T11:23:34;13.74;56.06
66752;SHT31;53663;42.676;23.238;2024-02-26T11:26:04;13.67;56.23
66752;SHT31;53663;42.676;23.238;2024-02-26T11:28:32;13.65;56.79
66752;SHT31;53663;42.676;23.238;2024-02-26T11:30:59;13.69;56.63
66752;SHT31;53663;42.676;23.238;2024-02-26T11:33:26;13.83;56.26
66752;SHT31;53663;42.676;23.238;2024-02-26T11:35:53;13.96;55.99
66752;SHT31;53663;42.676;23.238;2024-02-26T11:38:24;13.98;55.85
66752;SHT31;53663;42.676;23.238;2024-02-26T11:40:51;13.97;56.26
66752;SHT31;53663;42.676;23.238;2024-02-26T11:43:22;13.94;56.10
66752;SHT31;53663;42.676;23.238;2024-02-26T11:45:49;14.17;55.41
66752;SHT31;53663;42.676;23.238;2024-02-26T11:48:21;14.11;55.47
66752;SHT31;53663;42.676;23.238;2024-02-26T11:50:49;14.11;55.04
66752;SHT31;53663;42.676;23.238;2024-02-26T11:58:43;14.31;56.52
66752;SHT31;53663;42.676;23.238;2024-02-26T12:01:47;14.56;55.23
66752;SHT31;53663;42.676;23.238;2024-02-26T12:04:22;14.73;54.58
66752;SHT31;53663;42.676;23.238;2024-02-26T12:07:00;14.61;54.49
66752;SHT31;53663;42.676;23.238;2024-02-26T12:12:06;14.58;53.62
66752;SHT31;53663;42.676;23.238;2024-02-26T12:15:01;14.36;54.10
66752;SHT31;53663;42.676;23.238;2024-02-26T12:17:26;14.48;53.70
66752;SHT31;53663;42.676;23.238;2024-02-26T12:19:52;14.36;53.74
66752;SHT31;53663;42.676;23.238;2024-02-26T12:22:19;14.65;52.98
66752;SHT31;53663;42.676;23.238;2024-02-26T12:24:45;14.76;52.70
66752;SHT31;53663;42.676;23.238;2024-02-26T12:27:11;14.53;53.21
66752;SHT31;53663;42.676;23.238;2024-02-26T12:29:36;14.53;53.87
66752;SHT31;53663;42.676;23.238;2024-02-26T12:32:05;14.65;52.60
66752;SHT31;53663;42.676;23.238;2024-02-26T12:34:31;14.62;52.99
66752;SHT31;53663;42.676;23.238;2024-02-26T12:36:57;14.55;53.38
66752;SHT31;53663;42.676;23.238;2024-02-26T12:39:23;14.66;54.66
66752;SHT31;53663;42.676;23.238;2024-02-26T12:41:49;14.73;52.73
66752;SHT31;53663;42.676;23.238;2024-02-26T12:44:18;14.92;52.68
66752;SHT31;53663;42.676;23.238;2024-02-26T12:46:44;15.03;51.77
66752;SHT31;53663;42.676;23.238;2024-02-26T12:49:15;14.99;51.64
66752;SHT31;53663;42.676;23.238;2024-02-26T12:51:44;14.93;51.52
66752;SHT31;53663;42.676;23.238;2024-02-26T12:54:09;14.93;51.24
66752;SHT31;53663;42.676;23.238;2024-02-26T12:56:35;14.96;51.80
66752;SHT31;53663;42.676;23.238;2024-02-26T12:59:02;14.84;51.59
66752;SHT31;53663;42.676;23.238;2024-02-26T13:01:29;14.92;51.41
66752;SHT31;53663;42.676;23.238;2024-02-26T13:03:55;14.97;51.17
66752;SHT31;53663;42.676;23.238;2024-02-26T13:06:22;15.06;51.07
66752;SHT31;53663;42.676;23.238;2024-02-26T13:08:48;14.99;51.37
66752;SHT31;53663;42.676;23.238;2024-02-26T13:11:14;14.82;50.92
66752;SHT31;53663;42.676;23.238;2024-02-26T13:13:40;14.72;51.03
66752;SHT31;53663;42.676;23.238;2024-02-26T13:16:07;14.56;51.69
66752;SHT31;53663;42.676;23.238;2024-02-26T13:18:34;14.46;51.84
66752;SHT31;53663;42.676;23.238;2024-02-26T13:21:10;14.42;52.72
66752;SHT31;53663;42.676;23.238;2024-02-26T13:23:37;14.55;51.51
66752;SHT31;53663;42.676;23.238;2024-02-26T13:26:03;14.59;51.34
66752;SHT31;53663;42.676;23.238;2024-02-26T13:28:29;14.52;51.09
66752;SHT31;53663;42.676;23.238;2024-02-26T13:30:56;14.32;51.53
66752;SHT31;53663;42.676;23.238;2024-02-26T13:33:23;14.52;50.94
66752;SHT31;53663;42.676;23.238;2024-02-26T13:35:48;14.55;50.35
66752;SHT31;53663;42.676;23.238;2024-02-26T13:38:14;14.41;50.37
66752;SHT31;53663;42.676;23.238;2024-02-26T13:40:40;14.26;51.33
66752;SHT31;53663;42.676;23.238;2024-02-26T13:43:05;14.52;51.06
66752;SHT31;53663;42.676;23.238;2024-02-26T13:45:35;14.75;50.13
66752;SHT31;53663;42.676;23.238;2024-02-26T13:48:07;14.68;50.19
66752;SHT31;53663;42.676;23.238;2024-02-26T13:50:33;14.73;49.88
66752;SHT31;53663;42.676;23.238;2024-02-26T13:52:58;14.89;49.43
66752;SHT31;53663;42.676;23.238;2024-02-26T13:55:25;14.96;50.07
66752;SHT31;53663;42.676;23.238;2024-02-26T13:57:56;14.89;49.46
66752;SHT31;53663;42.676;23.238;2024-02-26T14:00:22;14.93;49.66
66752;SHT31;53663;42.676;23.238;2024-02-26T14:02:48;14.51;50.44
66752;SHT31;53663;42.676;23.238;2024-02-26T14:05:14;14.59;49.78
66752;SHT31;53663;42.676;23.238;2024-02-26T14:07:39;14.63;50.06
66752;SHT31;53663;42.676;23.238;2024-02-26T14:10:05;14.72;49.56
66752;SHT31;53663;42.676;23.238;2024-02-26T14:12:31;14.63;49.66
66752;SHT31;53663;42.676;23.238;2024-02-26T14:14:56;14.69;49.33
66752;SHT31;53663;42.676;23.238;2024-02-26T14:17:24;14.49;50.13
66752;SHT31;53663;42.676;23.238;2024-02-26T14:19:49;14.55;50.13
66752;SHT31;53663;42.676;23.238;2024-02-26T14:22:15;14.52;50.13
66752;SHT31;53663;42.676;23.238;2024-02-26T14:24:41;14.42;50.54
66752;SHT31;53663;42.676;23.238;2024-02-26T14:27:09;14.24;50.86
66752;SHT31;53663;42.676;23.238;2024-02-26T14:29:35;14.34;51.28
66752;SHT31;53663;42.676;23.238;2024-02-26T14:32:01;14.44;51.10
66752;SHT31;53663;42.676;23.238;2024-02-26T14:34:26;14.32;50.59
66752;SHT31;53663;42.676;23.238;2024-02-26T14:36:52;14.34;50.38
66752;SHT31;53663;42.676;23.238;2024-02-26T14:39:18;14.22;50.67
66752;SHT31;53663;42.676;23.238;2024-02-26T14:41:43;14.17;51.32
66752;SHT31;53663;42.676;23.238;2024-02-26T14:44:09;14.18;50.60
66752;SHT31;53663;42.676;23.238;2024-02-26T14:46:36;14.17;50.86
66752;SHT31;53663;42.676;23.238;2024-02-26T14:49:01;14.17;50.68
66752;SHT31;53663;42.676;23.238;2024-02-26T14:51:27;14.10;50.37
66752;SHT31;53663;42.676;23.238;2024-02-26T14:53:52;14.03;50.86
66752;SHT31;53663;42.676;23.238;2024-02-26T14:56:18;14.00;50.32
66752;SHT31;53663;42.676;23.238;2024-02-26T14:58:44;13.96;50.38
66752;SHT31;53663;42.676;23.238;2024-02-26T15:01:11;13.80;51.04
66752;SHT31;53663;42.676;23.238;2024-02-26T15:03:37;13.80;50.51
66752;SHT31;53663;42.676;23.238;2024-02-26T15:06:03;13.84;50.69
66752;SHT31;53663;42.676;23.238;2024-02-26T15:08:28;13.83;50.60
66752;SHT31;53663;42.676;23.238;2024-02-26T15:10:54;13.87;50.62
66752;SHT31;53663;42.676;23.238;2024-02-26T15:13:19;13.78;50.78
66752;SHT31;53663;42.676;23.238;2024-02-26T15:15:45;13.81;50.77
66752;SHT31;53663;42.676;23.238;2024-02-26T15:18:11;13.76;50.81
66752;SHT31;53663;42.676;23.238;2024-02-26T15:20:41;13.57;51.32
66752;SHT31;53663;42.676;23.238;2024-02-26T15:23:11;13.55;51.19
66752;SHT31;53663;42.676;23.238;2024-02-26T15:25:37;13.52;51.31